createdAt,value
2023-04-16T00:02:25.612Z,101445.84
2023-04-16T00:05:10.242Z,101435.09
2023-04-16T00:07:55.404Z,101441.03
2023-04-16T00:10:40.259Z,101440.19
2023-04-16T00:13:27.349Z,101430.72
2023-04-16T00:16:12.162Z,101428.69
2023-04-16T00:18:57.183Z,101431.19
2023-04-16T00:21:41.941Z,101434.06
2023-04-16T00:24:26.969Z,101435.28
2023-04-16T00:27:11.779Z,101432.53
2023-04-16T00:29:56.995Z,101435.28
2023-04-16T00:32:41.770Z,101434.84
2023-04-16T00:35:26.913Z,101431.22
2023-04-16T00:38:11.871Z,101437.31
2023-04-16T00:40:58.736Z,101434.44
2023-04-16T00:43:43.461Z,101444.38
2023-04-16T00:46:28.716Z,101431.56
2023-04-16T00:49:14.739Z,101426.09
2023-04-16T00:52:02.374Z,101433.22
2023-04-16T00:54:47.317Z,101437.50
2023-04-16T00:57:32.339Z,101428.59
2023-04-16T01:00:17.261Z,101438.19
2023-04-16T01:03:02.569Z,101441.72
2023-04-16T01:05:49.289Z,101442.72
2023-04-16T01:08:34.555Z,101442.09
2023-04-16T01:11:19.415Z,101440.78
2023-04-16T01:14:04.609Z,101437.91
2023-04-16T01:16:49.551Z,101444.72
2023-04-16T01:19:38.360Z,101436.16
2023-04-16T01:22:23.017Z,101444.63
2023-04-16T01:25:07.808Z,101444.63
2023-04-16T01:27:54.715Z,101447.41
2023-04-16T01:30:39.583Z,101454.47
2023-04-16T01:33:24.600Z,101451.63
2023-04-16T01:36:09.358Z,101451.69
2023-04-16T01:38:54.358Z,101460.44
2023-04-16T01:41:39.913Z,101464.06
2023-04-16T01:44:25.405Z,101460.91
2023-04-16T01:47:10.432Z,101469.91
2023-04-16T01:49:55.534Z,101464.75
2023-04-16T01:52:40.322Z,101470.66
2023-04-16T01:55:25.578Z,101460.91
2023-04-16T01:58:10.959Z,101466.72
2023-04-16T02:00:56.212Z,101464.41
2023-04-16T02:03:41.562Z,101466.94
2023-04-16T02:06:27.318Z,101467.91
2023-04-16T02:09:12.099Z,101463.47
2023-04-16T02:11:57.202Z,101473.78
2023-04-16T02:14:42.456Z,101474.63
2023-04-16T02:17:27.218Z,101473.56
2023-04-16T02:20:12.197Z,101477.66
2023-04-16T02:22:57.337Z,101480.00
2023-04-16T02:25:43.582Z,101481.56
2023-04-16T02:28:28.449Z,101472.03
2023-04-16T02:31:13.501Z,101472.00
2023-04-16T02:33:58.683Z,101475.94
2023-04-16T02:36:43.380Z,101471.16
2023-04-16T02:39:28.476Z,101476.03
2023-04-16T02:42:14.129Z,101466.63
2023-04-16T02:44:59.020Z,101466.28
2023-04-16T02:47:43.919Z,101465.75
2023-04-16T02:50:28.812Z,101472.25
2023-04-16T02:53:13.748Z,101479.72
2023-04-16T02:55:58.822Z,101475.50
2023-04-16T02:58:43.684Z,101475.00
2023-04-16T03:01:28.967Z,101478.22
2023-04-16T03:04:14.144Z,101475.38
2023-04-16T03:06:59.197Z,101473.31
2023-04-16T03:09:44.149Z,101472.09
2023-04-16T03:12:29.028Z,101470.72
2023-04-16T03:15:13.702Z,101468.91
2023-04-16T03:17:59.428Z,101471.56
2023-04-16T03:20:44.149Z,101471.41
2023-04-16T03:23:29.267Z,101473.44
2023-04-16T03:26:14.131Z,101474.53
2023-04-16T03:28:59.131Z,101478.59
2023-04-16T03:31:43.850Z,101477.78
2023-04-16T03:34:29.005Z,101484.22
2023-04-16T03:37:13.836Z,101478.47
2023-04-16T03:39:59.084Z,101483.28
2023-04-16T03:42:44.180Z,101484.22
2023-04-16T03:45:29.293Z,101490.03
2023-04-16T03:48:14.048Z,101487.72
2023-04-16T03:50:59.129Z,101493.13
2023-04-16T03:53:43.886Z,101488.72
2023-04-16T03:56:29.106Z,101493.38
2023-04-16T03:59:13.828Z,101496.72
2023-04-16T04:01:58.971Z,101506.19
2023-04-16T04:04:44.283Z,101504.31
2023-04-16T04:07:29.304Z,101515.31
2023-04-16T04:10:14.246Z,101510.03
2023-04-16T04:12:59.468Z,101507.66
2023-04-16T04:15:44.571Z,101518.91
2023-04-16T04:18:29.549Z,101523.25
2023-04-16T04:21:14.425Z,101522.72
2023-04-16T04:23:59.618Z,101524.31
2023-04-16T04:26:44.394Z,101528.13
2023-04-16T04:29:29.479Z,101529.09
2023-04-16T04:32:14.468Z,101532.94
2023-04-16T04:35:02.415Z,101541.94
2023-04-16T04:37:47.322Z,101537.63
2023-04-16T04:40:32.039Z,101544.34
2023-04-16T04:43:16.993Z,101544.69
2023-04-16T04:46:02.226Z,101543.50
2023-04-16T04:48:47.583Z,101539.31
2023-04-16T04:51:32.902Z,101545.88
2023-04-16T04:54:17.843Z,101537.84
2023-04-16T04:57:02.914Z,101551.72
2023-04-16T04:59:47.783Z,101543.13
2023-04-16T05:02:32.950Z,101548.16
2023-04-16T05:05:18.067Z,101546.84
2023-04-16T05:08:03.104Z,101552.81
2023-04-16T05:10:48.046Z,101550.94
2023-04-16T05:13:33.132Z,101553.19
2023-04-16T05:16:17.912Z,101557.88
2023-04-16T05:19:03.299Z,101558.00
2023-04-16T05:21:48.282Z,101559.53
2023-04-16T05:24:33.455Z,101564.91
2023-04-16T05:27:18.315Z,101567.22
2023-04-16T05:30:03.740Z,101565.91
2023-04-16T05:32:48.694Z,101556.91
2023-04-16T05:35:34.948Z,101569.25
2023-04-16T05:38:19.784Z,101567.84
2023-04-16T05:41:04.892Z,101584.38
2023-04-16T05:43:49.748Z,101580.19
2023-04-16T05:46:35.257Z,101578.88
2023-04-16T05:49:20.190Z,101589.91
2023-04-16T05:52:05.735Z,101581.75
2023-04-16T05:54:50.868Z,101589.03
2023-04-16T05:57:36.093Z,101586.19
2023-04-16T06:00:20.914Z,101589.66
2023-04-16T06:03:06.288Z,101591.53
2023-04-16T06:05:51.734Z,101595.41
2023-04-16T06:08:36.461Z,101588.91
2023-04-16T06:11:21.436Z,101591.78
2023-04-16T06:14:06.592Z,101597.03
2023-04-16T06:16:51.362Z,101597.41
2023-04-16T06:19:36.330Z,101598.09
2023-04-16T06:22:21.368Z,101599.06
2023-04-16T06:25:06.446Z,101598.00
2023-04-16T06:27:51.453Z,101604.50
2023-04-16T06:30:36.675Z,101604.72
2023-04-16T06:33:21.524Z,101605.94
2023-04-16T06:36:06.907Z,101611.47
2023-04-16T06:38:51.833Z,101616.97
2023-04-16T06:41:37.023Z,101620.47
2023-04-16T06:44:22.036Z,101624.53
2023-04-16T06:47:07.767Z,101619.13
2023-04-16T06:49:52.470Z,101620.91
2023-04-16T06:52:37.328Z,101626.69
2023-04-16T06:55:22.637Z,101623.56
2023-04-16T06:58:07.277Z,101622.94
2023-04-16T07:00:52.407Z,101625.59
2023-04-16T07:03:37.388Z,101628.47
2023-04-16T07:06:22.241Z,101636.38
2023-04-16T07:09:07.156Z,101639.16
2023-04-16T07:11:53.464Z,101637.13
2023-04-16T07:14:38.298Z,101650.34
2023-04-16T07:17:23.275Z,101645.88
2023-04-16T07:20:08.750Z,101651.75
2023-04-16T07:22:53.655Z,101646.59
2023-04-16T07:25:38.484Z,101657.50
2023-04-16T07:28:25.125Z,101657.16
2023-04-16T07:31:09.927Z,101662.31
2023-04-16T07:33:55.283Z,101655.25
2023-04-16T07:36:40.260Z,101666.97
2023-04-16T07:39:25.733Z,101665.78
2023-04-16T07:42:10.786Z,101670.34
2023-04-16T07:44:55.934Z,101668.19
2023-04-16T07:47:40.875Z,101676.81
2023-04-16T07:50:25.770Z,101668.19
2023-04-16T07:53:10.769Z,101669.28
2023-04-16T07:55:55.704Z,101683.66
2023-04-16T07:58:40.741Z,101680.63
2023-04-16T08:01:25.770Z,101681.13
2023-04-16T08:04:10.711Z,101685.47
2023-04-16T08:06:56.054Z,101681.50
2023-04-16T08:09:48.680Z,101677.31
2023-04-16T08:12:33.719Z,101682.34
2023-04-16T08:15:19.024Z,101683.41
2023-04-16T08:18:05.776Z,101691.59
2023-04-16T08:20:51.122Z,101689.88
2023-04-16T08:23:36.552Z,101691.22
2023-04-16T08:26:21.672Z,101700.47
2023-04-16T08:29:06.792Z,101700.94
2023-04-16T08:31:53.378Z,101703.72
2023-04-16T08:34:38.454Z,101708.28
2023-04-16T08:37:23.257Z,101706.44
2023-04-16T08:40:08.608Z,101716.44
2023-04-16T08:42:56.059Z,101712.69
2023-04-16T08:45:42.722Z,101712.53
2023-04-16T08:48:33.741Z,101711.09
2023-04-16T08:51:19.947Z,101708.47
2023-04-16T08:54:09.060Z,101714.63
2023-04-16T08:56:55.534Z,101699.72
2023-04-16T08:59:45.850Z,101706.75
2023-04-16T09:02:31.458Z,101700.13
2023-04-16T09:05:17.796Z,101691.75
2023-04-16T09:08:02.692Z,101692.00
2023-04-16T09:10:48.801Z,101697.78
2023-04-16T09:13:33.792Z,101695.22
2023-04-16T09:16:20.265Z,101695.94
2023-04-16T09:19:05.417Z,101686.06
2023-04-16T09:21:50.980Z,101685.34
2023-04-16T09:24:38.278Z,101689.19
2023-04-16T09:27:26.164Z,101698.22
2023-04-16T09:30:25.920Z,101696.63
2023-04-16T09:33:22.807Z,101703.75
2023-04-16T09:36:08.775Z,101700.16
2023-04-16T09:38:57.412Z,101695.50
2023-04-16T09:41:42.768Z,101698.34
2023-04-16T09:44:36.636Z,101698.28
2023-04-16T09:47:22.754Z,101691.75
2023-04-16T09:50:11.298Z,101686.50
2023-04-16T09:53:02.601Z,101686.25
2023-04-16T09:55:47.613Z,101679.84
2023-04-16T09:58:35.568Z,101683.63
2023-04-16T10:01:20.811Z,101680.28
2023-04-16T10:04:06.820Z,101676.38
2023-04-16T10:07:07.306Z,101681.47
2023-04-16T10:09:52.880Z,101688.34
2023-04-16T10:12:37.842Z,101688.34
2023-04-16T10:15:22.937Z,101686.41
2023-04-16T10:18:07.821Z,101681.25
2023-04-16T10:20:52.985Z,101681.84
2023-04-16T10:23:41.754Z,101688.06
2023-04-16T10:26:27.616Z,101681.81
2023-04-16T10:29:13.299Z,101685.16
2023-04-16T10:31:59.331Z,101694.38
2023-04-16T10:34:45.442Z,101691.72
2023-04-16T10:37:31.740Z,101693.53
2023-04-16T10:40:26.913Z,101692.41
2023-04-16T10:43:17.610Z,101690.91
2023-04-16T10:46:19.314Z,101693.84
2023-04-16T10:49:23.920Z,101686.84
2023-04-16T10:52:14.725Z,101683.63
2023-04-16T10:55:00.822Z,101688.53
2023-04-16T10:57:49.540Z,101691.88
2023-04-16T11:00:49.286Z,101682.38
2023-04-16T11:03:34.235Z,101687.69
2023-04-16T11:06:26.879Z,101684.06
2023-04-16T11:09:50.293Z,101690.75
2023-04-16T11:12:40.341Z,101682.94
2023-04-16T11:15:30.741Z,101689.78
2023-04-16T11:18:19.654Z,101686.13
2023-04-16T11:21:11.166Z,101688.25
2023-04-16T11:23:57.586Z,101693.97
2023-04-16T11:26:42.413Z,101670.81
2023-04-16T11:29:27.491Z,101676.41
2023-04-16T11:32:22.105Z,101667.75
2023-04-16T11:35:17.998Z,101670.56
2023-04-16T11:38:02.863Z,101661.31
2023-04-16T11:40:49.837Z,101671.09
2023-04-16T11:43:34.600Z,101668.88
2023-04-16T11:46:27.554Z,101677.28
2023-04-16T11:49:12.881Z,101669.28
2023-04-16T11:51:58.526Z,101667.91
2023-04-16T11:54:50.290Z,101673.16
2023-04-16T11:57:35.231Z,101674.44
2023-04-16T12:00:21.131Z,101674.88
2023-04-16T12:03:09.887Z,101667.19
2023-04-16T12:05:54.953Z,101666.25
2023-04-16T12:08:39.871Z,101674.59
2023-04-16T12:11:43.458Z,101679.75
2023-04-16T12:14:29.363Z,101684.09
2023-04-16T12:17:20.965Z,101676.38
2023-04-16T12:20:13.975Z,101675.75
2023-04-16T12:23:01.292Z,101670.97
2023-04-16T12:25:46.330Z,101679.03
2023-04-16T12:28:33.864Z,101674.97
2023-04-16T12:31:36.837Z,101682.41
2023-04-16T12:34:22.238Z,101696.00
2023-04-16T12:37:27.209Z,101690.66
2023-04-16T12:40:12.136Z,101680.53
2023-04-16T12:42:57.335Z,101680.16
2023-04-16T12:45:42.184Z,101678.81
2023-04-16T12:48:27.201Z,101678.72
2023-04-16T12:51:11.984Z,101686.28
2023-04-16T12:53:57.350Z,101674.97
2023-04-16T12:56:42.362Z,101676.44
2023-04-16T12:59:27.638Z,101674.91
2023-04-16T13:02:12.835Z,101665.47
2023-04-16T13:04:58.098Z,101666.84
2023-04-16T13:07:43.328Z,101664.16
2023-04-16T13:10:28.771Z,101667.84
2023-04-16T13:13:14.109Z,101662.69
2023-04-16T13:15:58.932Z,101664.81
2023-04-16T13:18:43.744Z,101654.56
2023-04-16T13:21:28.876Z,101662.53
2023-04-16T13:24:13.629Z,101660.25
2023-04-16T13:26:59.269Z,101667.03
2023-04-16T13:29:44.523Z,101659.47
2023-04-16T13:32:29.766Z,101658.94
2023-04-16T13:35:14.517Z,101658.28
2023-04-16T13:37:59.626Z,101667.25
2023-04-16T13:40:44.642Z,101660.41
2023-04-16T13:43:29.540Z,101658.69
2023-04-16T13:46:14.372Z,101654.84
2023-04-16T13:48:59.773Z,101654.16
2023-04-16T13:51:45.872Z,101650.00
2023-04-16T13:54:31.078Z,101650.06
2023-04-16T13:57:16.154Z,101651.28
2023-04-16T14:00:01.389Z,101656.38
2023-04-16T14:02:48.738Z,101651.56
2023-04-16T14:05:34.306Z,101652.66
2023-04-16T14:08:21.157Z,101653.34
2023-04-16T14:11:06.399Z,101655.91
2023-04-16T14:13:51.178Z,101659.94
2023-04-16T14:16:36.311Z,101657.53
2023-04-16T14:19:21.278Z,101653.22
2023-04-16T14:22:06.967Z,101655.00
2023-04-16T14:24:53.907Z,101657.06
2023-04-16T14:27:39.142Z,101657.13
2023-04-16T14:30:23.949Z,101663.44
2023-04-16T14:33:09.115Z,101659.25
2023-04-16T14:35:54.724Z,101656.88
2023-04-16T14:38:40.638Z,101657.28
2023-04-16T14:41:25.620Z,101659.72
2023-04-16T14:44:10.437Z,101657.84
2023-04-16T14:46:55.697Z,101655.13
2023-04-16T14:49:40.532Z,101662.44
2023-04-16T14:52:26.364Z,101657.16
2023-04-16T14:55:14.235Z,101656.44
2023-04-16T14:57:59.609Z,101660.00
2023-04-16T15:00:44.469Z,101650.56
2023-04-16T15:03:32.856Z,101648.56
2023-04-16T15:06:19.066Z,101649.31
2023-04-16T15:09:04.191Z,101649.50
2023-04-16T15:11:49.274Z,101647.38
2023-04-16T15:14:34.100Z,101651.84
2023-04-16T15:17:19.475Z,101648.94
2023-04-16T15:20:09.022Z,101649.06
2023-04-16T15:22:53.848Z,101643.34
2023-04-16T15:25:38.834Z,101639.91
2023-04-16T15:28:23.822Z,101644.97
2023-04-16T15:31:08.605Z,101644.59
2023-04-16T15:33:54.425Z,101638.91
2023-04-16T15:36:39.614Z,101645.81
2023-04-16T15:39:24.872Z,101649.63
2023-04-16T15:42:11.087Z,101644.09
2023-04-16T15:44:56.077Z,101645.47
2023-04-16T15:47:41.982Z,101654.13
2023-04-16T15:50:27.456Z,101657.47
2023-04-16T15:53:12.781Z,101663.44
2023-04-16T15:55:57.694Z,101665.03
2023-04-16T15:58:42.607Z,101660.13
2023-04-16T16:01:27.916Z,101665.75
2023-04-16T16:04:12.730Z,101665.38
2023-04-16T16:06:58.035Z,101666.88
2023-04-16T16:09:43.592Z,101670.44
2023-04-16T16:12:29.742Z,101670.75
2023-04-16T16:15:15.144Z,101672.84
2023-04-16T16:17:59.997Z,101671.88
2023-04-16T16:20:45.645Z,101681.09
2023-04-16T16:23:30.340Z,101678.56
2023-04-16T16:26:15.923Z,101685.41
2023-04-16T16:29:01.434Z,101678.38
2023-04-16T16:31:46.323Z,101677.91
2023-04-16T16:34:31.670Z,101687.25
2023-04-16T16:37:16.710Z,101690.13
2023-04-16T16:40:01.745Z,101677.03
2023-04-16T16:42:46.898Z,101675.97
2023-04-16T16:45:31.925Z,101680.16
2023-04-16T16:48:16.781Z,101685.75
2023-04-16T16:51:01.582Z,101689.84
2023-04-16T16:53:46.677Z,101680.47
2023-04-16T16:56:31.374Z,101687.13
2023-04-16T16:59:16.411Z,101691.66
2023-04-16T17:02:01.259Z,101692.41
2023-04-16T17:04:48.451Z,101696.22
2023-04-16T17:07:33.657Z,101701.41
2023-04-16T17:10:21.494Z,101695.13
2023-04-16T17:13:06.577Z,101698.34
2023-04-16T17:15:51.516Z,101708.69
2023-04-16T17:18:36.471Z,101707.00
2023-04-16T17:21:21.526Z,101713.28
2023-04-16T17:24:06.239Z,101710.91
2023-04-16T17:26:51.164Z,101713.56
2023-04-16T17:29:36.222Z,101717.91
2023-04-16T17:32:21.254Z,101716.66
2023-04-16T17:35:06.799Z,101720.28
2023-04-16T17:37:51.981Z,101729.38
2023-04-16T17:40:37.314Z,101722.53
2023-04-16T17:43:22.274Z,101722.81
2023-04-16T17:46:10.709Z,101729.97
2023-04-16T17:48:55.521Z,101726.31
2023-04-16T17:51:44.214Z,101737.94
2023-04-16T17:58:37.877Z,101725.47
2023-04-16T18:01:22.647Z,101727.59
2023-04-16T18:04:08.056Z,101729.53
2023-04-16T18:06:53.004Z,101736.13
2023-04-16T18:09:38.054Z,101733.34
2023-04-16T18:12:22.893Z,101734.31
2023-04-16T18:15:08.643Z,101738.06
2023-04-16T18:17:54.244Z,101735.97
2023-04-16T18:20:39.154Z,101737.81
2023-04-16T18:23:24.035Z,101745.91
2023-04-16T18:26:09.485Z,101757.78
2023-04-16T18:28:55.849Z,101753.44
2023-04-16T18:31:41.160Z,101751.75
2023-04-16T18:34:25.874Z,101757.22
2023-04-16T18:37:11.124Z,101769.91
2023-04-16T18:39:57.906Z,101768.38
2023-04-16T18:42:43.383Z,101776.91
2023-04-16T18:45:28.350Z,101781.66
2023-04-16T18:48:13.189Z,101779.84
2023-04-16T18:50:58.398Z,101781.78
2023-04-16T18:53:45.179Z,101786.09
2023-04-16T18:56:30.991Z,101787.50
2023-04-16T18:59:15.906Z,101785.69
2023-04-16T19:02:00.847Z,101795.44
2023-04-16T19:04:46.262Z,101786.09
2023-04-16T19:07:31.009Z,101792.09
2023-04-16T19:10:16.527Z,101793.91
2023-04-16T19:13:01.336Z,101792.94
2023-04-16T19:15:46.527Z,101795.59
2023-04-16T19:18:31.489Z,101802.03
2023-04-16T19:21:16.196Z,101806.63
2023-04-16T19:24:01.258Z,101806.31
2023-04-16T19:26:46.060Z,101804.53
2023-04-16T19:29:34.311Z,101807.59
2023-04-16T19:32:19.281Z,101810.94
2023-04-16T19:35:04.663Z,101812.47
2023-04-16T19:37:50.373Z,101803.13
2023-04-16T19:40:35.516Z,101808.56
2023-04-16T19:43:20.355Z,101808.13
2023-04-16T19:46:05.295Z,101800.88
2023-04-16T19:48:50.425Z,101810.94
2023-04-16T19:51:35.537Z,101809.38
2023-04-16T19:54:20.692Z,101810.50
2023-04-16T19:57:05.914Z,101803.66
2023-04-16T19:59:50.791Z,101813.53
2023-04-16T20:02:36.059Z,101816.34
2023-04-16T20:05:21.179Z,101818.28
2023-04-16T20:08:06.481Z,101816.34
2023-04-16T20:10:53.816Z,101815.50
2023-04-16T20:13:38.793Z,101811.16
2023-04-16T20:16:23.662Z,101819.78
2023-04-16T20:19:09.140Z,101822.59
2023-04-16T20:21:54.089Z,101822.59
2023-04-16T20:24:41.445Z,101821.75
2023-04-16T20:27:26.457Z,101821.59
2023-04-16T20:30:12.342Z,101828.59
2023-04-16T20:32:57.568Z,101828.16
2023-04-16T20:35:42.551Z,101825.50
2023-04-16T20:38:29.432Z,101825.50
2023-04-16T20:41:21.194Z,101821.06
2023-04-16T20:44:09.945Z,101816.72
2023-04-16T20:46:56.875Z,101824.94
2023-04-16T20:49:46.471Z,101826.72
2023-04-16T20:52:31.247Z,101826.03
2023-04-16T20:55:16.602Z,101820.16
2023-04-16T20:58:01.668Z,101823.78
2023-04-16T21:00:51.168Z,101819.88
2023-04-16T21:03:36.360Z,101819.03
2023-04-16T21:06:22.389Z,101822.19
2023-04-16T21:09:07.454Z,101820.38
2023-04-16T21:11:52.372Z,101824.84
2023-04-16T21:14:37.468Z,101815.09
2023-04-16T21:17:22.147Z,101814.25
2023-04-16T21:20:10.636Z,101815.34
2023-04-16T21:22:56.784Z,101819.00
2023-04-16T21:25:41.869Z,101818.25
2023-04-16T21:28:26.801Z,101824.56
2023-04-16T21:31:11.871Z,101823.69
2023-04-16T21:33:56.797Z,101815.06
2023-04-16T21:36:41.816Z,101812.69
2023-04-16T21:39:30.860Z,101814.75
2023-04-16T21:42:15.918Z,101816.97
2023-04-16T21:45:00.759Z,101818.66
2023-04-16T21:47:45.981Z,101817.38
2023-04-16T21:50:30.806Z,101815.84
2023-04-16T21:53:15.962Z,101806.94
2023-04-16T21:56:00.822Z,101819.19
2023-04-16T21:58:45.506Z,101820.28
2023-04-16T22:01:30.429Z,101819.22
2023-04-16T22:04:15.485Z,101826.06
2023-04-16T22:07:03.123Z,101822.25
2023-04-16T22:09:47.873Z,101817.28
2023-04-16T22:12:32.729Z,101824.94
2023-04-16T22:15:17.731Z,101824.41
2023-04-16T22:18:02.829Z,101829.78
2023-04-16T22:20:50.576Z,101825.44
2023-04-16T22:23:35.470Z,101830.09
2023-04-16T22:26:20.798Z,101832.94
2023-04-16T22:29:06.397Z,101839.63
2023-04-16T22:31:51.463Z,101838.09
2023-04-16T22:34:36.397Z,101841.47
2023-04-16T22:37:21.399Z,101836.28
2023-04-16T22:40:08.381Z,101829.84
2023-04-16T22:42:53.278Z,101830.28
2023-04-16T22:45:38.483Z,101835.41
2023-04-16T22:48:23.193Z,101833.09
2023-04-16T22:51:08.749Z,101833.59
2023-04-16T22:53:53.747Z,101836.94
2023-04-16T22:56:38.865Z,101833.59
2023-04-16T22:59:24.490Z,101830.34
2023-04-16T23:02:09.438Z,101829.69
2023-04-16T23:04:54.172Z,101835.13
2023-04-16T23:07:39.347Z,101839.16
2023-04-16T23:10:24.030Z,101839.53
2023-04-16T23:13:09.111Z,101838.09
2023-04-16T23:15:53.972Z,101837.66
2023-04-16T23:18:39.350Z,101848.44
2023-04-16T23:21:24.114Z,101841.69
2023-04-16T23:24:09.267Z,101841.16
2023-04-16T23:26:54.113Z,101845.84
2023-04-16T23:29:39.249Z,101845.97
2023-04-16T23:32:23.889Z,101840.69
2023-04-16T23:35:09.329Z,101839.94
2023-04-16T23:37:54.408Z,101848.63
2023-04-16T23:40:39.205Z,101851.00
2023-04-16T23:43:23.989Z,101845.59
2023-04-16T23:46:09.053Z,101842.53
2023-04-16T23:48:55.086Z,101843.00
2023-04-16T23:51:39.994Z,101839.88
2023-04-16T23:54:25.278Z,101841.91
2023-04-16T23:57:10.269Z,101841.91
2023-04-16T23:59:55.312Z,101841.91
